Time;durP1;ratioP1;P1;durP2;ratioP2;P2;SDS_P1;SDS_P2;PMS_P1;PMS_P2;Temp;Humidity;BMP_temperature;BMP_pressure;BME280_temperature;BME280_humidity;BME280_pressure;Samples;Min_cycle;Max_cycle;Signal;HPM_P1;HPM_P2
2021/11/26 00:02:20;;;;;;;1870.07;221.20;;;3.80;99.90;;;;;;6289347;22;20416;-68
2021/11/26 00:04:49;;;;;;;1999.90;527.10;;;3.80;99.90;;;;;;6278232;22;20385;-68
2021/11/26 00:07:18;;;;;;;1999.90;593.13;;;3.80;99.90;;;;;;6288769;22;20520;-68
2021/11/26 00:09:47;;;;;;;1999.90;853.97;;;3.80;99.90;;;;;;6288337;22;20472;-68
2021/11/26 00:12:15;;;;;;;1999.90;468.57;;;3.80;99.90;;;;;;6288469;22;20426;-68
2021/11/26 00:14:49;;;;;;;1999.90;807.43;;;3.80;99.90;;;;;;6288361;22;20405;-68
2021/11/26 00:17:20;;;;;;;1999.90;429.33;;;3.80;99.90;;;;;;6283331;22;20413;-68
2021/11/26 00:19:49;;;;;;;1918.90;333.50;;;3.80;99.90;;;;;;6250839;22;20434;-68
2021/11/26 00:22:17;;;;;;;1952.00;331.70;;;3.80;99.90;;;;;;6250962;22;20420;-68
2021/11/26 00:24:48;;;;;;;1515.97;244.80;;;3.80;99.90;;;;;;6250951;22;20517;-68
2021/11/26 00:27:17;;;;;;;1999.90;446.67;;;3.80;99.90;;;;;;6288202;22;20414;-68
2021/11/26 00:29:45;;;;;;;1643.20;253.07;;;3.80;99.90;;;;;;6250899;22;20472;-68
2021/11/26 00:32:13;;;;;;;1999.90;219.57;;;3.80;99.90;;;;;;6288274;22;20405;-68
2021/11/26 00:34:42;;;;;;;1170.20;196.53;;;3.70;99.90;;;;;;6250896;22;20419;-68
2021/11/26 00:37:11;;;;;;;1999.90;511.50;;;3.70;99.90;;;;;;6288215;22;20399;-68
2021/11/26 00:39:39;;;;;;;1999.90;537.00;;;3.70;99.90;;;;;;6288078;22;20416;-68
2021/11/26 00:42:08;;;;;;;1999.90;731.80;;;3.70;99.90;;;;;;6288160;22;20484;-68
2021/11/26 00:44:36;;;;;;;1691.57;218.63;;;3.70;99.90;;;;;;6288121;22;20876;-68
2021/11/26 00:47:04;;;;;;;1342.53;240.83;;;3.70;99.90;;;;;;6288004;22;20510;-68
2021/11/26 00:49:32;;;;;;;1140.23;169.60;;;3.70;99.90;;;;;;6288059;22;20416;-68
2021/11/26 00:52:02;;;;;;;1999.90;431.90;;;3.70;99.90;;;;;;6288013;22;20397;-68
2021/11/26 00:54:30;;;;;;;1999.90;278.77;;;3.70;99.90;;;;;;6288357;22;20396;-68
2021/11/26 00:56:58;;;;;;;1401.60;256.60;;;3.70;99.90;;;;;;6288352;22;20935;-68
2021/11/26 00:59:26;;;;;;;1999.90;381.77;;;3.70;99.90;;;;;;6287928;22;20417;-68
2021/11/26 01:01:54;;;;;;;1999.90;434.63;;;3.60;99.90;;;;;;6288027;22;20397;-68
2021/11/26 01:04:22;;;;;;;1489.97;256.93;;;3.60;99.90;;;;;;6250601;22;20411;-68
2021/11/26 01:06:50;;;;;;;1999.90;485.23;;;3.60;99.90;;;;;;6287886;22;20432;-68
2021/11/26 01:09:20;;;;;;;1895.87;302.93;;;3.60;99.90;;;;;;6277821;22;20515;-68
2021/11/26 01:11:48;;;;;;;1563.77;248.43;;;3.60;99.90;;;;;;6250171;22;20461;-68
2021/11/26 01:14:16;;;;;;;1738.53;336.77;;;3.60;99.90;;;;;;6287872;22;20393;-68
2021/11/26 01:16:45;;;;;;;1999.90;515.33;;;3.60;99.90;;;;;;6250298;22;20414;-69
2021/11/26 01:19:13;;;;;;;1999.90;370.53;;;3.60;99.90;;;;;;6287909;22;20444;-68
2021/11/26 01:21:41;;;;;;;1912.53;348.80;;;3.60;99.90;;;;;;6288158;22;20403;-68
2021/11/26 01:24:10;;;;;;;1999.90;635.23;;;3.60;99.90;;;;;;6287759;22;20397;-68
2021/11/26 01:26:39;;;;;;;1999.90;345.77;;;3.70;99.90;;;;;;6287709;22;20426;-68
2021/11/26 01:29:07;;;;;;;1999.90;406.10;;;3.70;99.90;;;;;;6287647;22;20510;-68
2021/11/26 01:31:37;;;;;;;1999.90;688.17;;;3.70;99.90;;;;;;6288077;22;20421;-68
2021/11/26 01:34:07;;;;;;;1999.90;273.73;;;3.70;99.90;;;;;;6287673;22;20889;-68
2021/11/26 01:36:35;;;;;;;1999.90;443.83;;;3.70;99.90;;;;;;6250299;22;20499;-68
2021/11/26 01:39:05;;;;;;;1999.90;392.50;;;3.70;99.90;;;;;;6287556;22;20505;-68
2021/11/26 01:41:35;;;;;;;1999.90;333.43;;;3.70;99.90;;;;;;6287922;22;20402;-68
2021/11/26 01:44:05;;;;;;;1959.10;379.63;;;3.70;99.90;;;;;;6287525;22;20980;-68
2021/11/26 01:46:39;;;;;;;1913.90;295.27;;;3.80;99.90;;;;;;6287391;22;20392;-68
2021/11/26 01:49:07;;;;;;;1976.47;296.17;;;3.80;99.90;;;;;;6277086;22;20419;-68
2021/11/26 01:51:36;;;;;;;1999.90;750.43;;;3.80;99.90;;;;;;6287482;22;20441;-68
2021/11/26 01:54:06;;;;;;;1994.53;282.57;;;3.80;99.90;;;;;;6277469;22;20481;-68
2021/11/26 01:56:34;;;;;;;1999.90;581.93;;;3.80;99.90;;;;;;6288286;22;20420;-69
2021/11/26 01:59:04;;;;;;;1999.90;259.20;;;3.80;99.90;;;;;;6287436;22;20437;-68
2021/11/26 02:01:33;;;;;;;1999.90;457.07;;;3.90;99.90;;;;;;6287416;22;20919;-69
2021/11/26 02:04:01;;;;;;;1999.90;562.37;;;3.90;99.90;;;;;;6287441;22;20400;-69
2021/11/26 02:06:30;;;;;;;1999.90;999.90;;;3.90;99.90;;;;;;6249979;22;20415;-69
2021/11/26 02:08:58;;;;;;;1999.90;523.27;;;3.90;99.90;;;;;;6287508;22;20443;-68
2021/11/26 02:11:26;;;;;;;1999.90;395.60;;;3.90;99.90;;;;;;6287351;22;20435;-69
2021/11/26 02:13:54;;;;;;;1999.90;436.67;;;3.90;99.90;;;;;;6287327;22;20407;-69
2021/11/26 02:16:24;;;;;;;1999.90;261.37;;;3.90;99.90;;;;;;6287640;22;20395;-69
2021/11/26 02:18:52;;;;;;;1999.90;505.20;;;3.90;99.90;;;;;;6287172;22;20441;-69
2021/11/26 02:21:22;;;;;;;1906.93;715.13;;;3.90;99.90;;;;;;6249849;22;20409;-69
2021/11/26 02:23:51;;;;;;;1999.90;164.70;;;4.00;99.90;;;;;;6249394;22;20448;-69
2021/11/26 02:26:19;;;;;;;1999.90;773.70;;;3.90;99.90;;;;;;6249812;22;20407;-69
2021/11/26 02:28:47;;;;;;;1999.90;729.83;;;4.00;99.90;;;;;;6286935;22;20529;-68
2021/11/26 02:31:15;;;;;;;1999.90;713.53;;;4.00;99.90;;;;;;6287460;22;20399;-69
2021/11/26 02:33:43;;;;;;;1999.90;273.57;;;4.00;99.90;;;;;;6287173;22;20397;-68
2021/11/26 02:36:12;;;;;;;1999.90;738.93;;;4.00;99.90;;;;;;6277155;22;20397;-68
2021/11/26 02:38:41;;;;;;;1773.53;265.33;;;4.00;99.90;;;;;;6249624;22;20462;-68
2021/11/26 02:41:09;;;;;;;1843.60;248.80;;;4.00;99.90;;;;;;6287048;22;20391;-69
2021/11/26 02:43:38;;;;;;;1999.90;500.30;;;4.00;99.90;;;;;;6288013;22;20429;-69
2021/11/26 02:46:06;;;;;;;1999.90;280.27;;;4.00;99.90;;;;;;6249730;22;20420;-69
2021/11/26 02:48:35;;;;;;;1999.90;761.67;;;4.00;99.90;;;;;;6276509;22;20470;-68
2021/11/26 02:51:03;;;;;;;1848.73;228.43;;;4.00;99.90;;;;;;6277009;22;20412;-69
2021/11/26 02:53:32;;;;;;;1999.90;758.50;;;4.00;99.90;;;;;;6287318;22;20430;-69
2021/11/26 02:56:01;;;;;;;1999.90;800.53;;;3.90;99.90;;;;;;6249617;22;20426;-69
2021/11/26 02:58:29;;;;;;;1999.90;733.20;;;4.00;99.90;;;;;;6287213;22;20902;-69
2021/11/26 03:01:00;;;;;;;1905.90;257.60;;;4.00;99.90;;;;;;6287302;22;20484;-69
2021/11/26 03:03:28;;;;;;;1999.90;478.60;;;3.90;99.90;;;;;;6249672;22;20408;-68
2021/11/26 03:05:59;;;;;;;1706.13;286.97;;;3.90;99.90;;;;;;6249547;22;20787;-68
2021/11/26 03:08:28;;;;;;;1999.90;774.83;;;3.90;99.90;;;;;;6286834;22;20835;-68
2021/11/26 03:10:57;;;;;;;1999.90;482.03;;;3.90;99.90;;;;;;6286972;22;20393;-68
2021/11/26 03:13:27;;;;;;;1999.90;743.33;;;3.90;99.90;;;;;;6286848;22;20894;-68
2021/11/26 03:15:55;;;;;;;1999.90;259.83;;;3.90;99.90;;;;;;6249457;22;20445;-69
2021/11/26 03:18:27;;;;;;;1999.90;257.03;;;3.90;99.90;;;;;;6276932;22;20434;-68
2021/11/26 03:20:57;;;;;;;1901.93;279.33;;;3.90;99.90;;;;;;6249483;22;20415;-68
2021/11/26 03:23:26;;;;;;;1732.60;267.63;;;3.90;99.90;;;;;;6286828;22;20397;-68
2021/11/26 03:25:54;;;;;;;1999.90;498.23;;;3.90;99.90;;;;;;6249389;22;20462;-68
2021/11/26 03:28:22;;;;;;;1994.50;315.43;;;3.90;99.90;;;;;;6249279;22;20452;-68
2021/11/26 03:30:51;;;;;;;1999.90;527.17;;;3.90;99.90;;;;;;6287085;22;20399;-68
2021/11/26 03:33:19;;;;;;;1896.23;316.77;;;3.90;99.90;;;;;;6287197;22;20400;-68
2021/11/26 03:35:48;;;;;;;1999.90;642.87;;;3.90;99.90;;;;;;6288584;22;20393;-68
2021/11/26 03:38:16;;;;;;;1999.90;317.80;;;3.90;99.90;;;;;;6289314;22;20539;-68
2021/11/26 03:40:44;;;;;;;1881.40;292.47;;;3.90;99.90;;;;;;6251392;22;20872;-69
2021/11/26 03:43:13;;;;;;;1999.90;479.77;;;3.90;99.90;;;;;;6251455;22;20416;-68
2021/11/26 03:45:41;;;;;;;1999.90;658.87;;;3.90;99.90;;;;;;6289085;22;20396;-68
2021/11/26 03:48:11;;;;;;;1999.90;999.90;;;3.90;99.90;;;;;;6251155;22;20483;-68
2021/11/26 03:50:39;;;;;;;1999.90;328.23;;;3.90;99.90;;;;;;6251311;22;20507;-68
2021/11/26 03:53:07;;;;;;;1999.90;350.03;;;3.90;99.90;;;;;;6288738;22;20736;-68
2021/11/26 03:55:35;;;;;;;1999.90;348.30;;;3.90;99.90;;;;;;6288644;22;20931;-68
2021/11/26 03:58:03;;;;;;;1999.90;579.27;;;3.90;99.90;;;;;;6288562;22;20717;-68
2021/11/26 04:00:31;;;;;;;1999.90;335.80;;;3.90;99.90;;;;;;6288970;22;20464;-68
2021/11/26 04:03:00;;;;;;;1999.90;499.73;;;3.90;99.90;;;;;;6278187;22;20432;-68
2021/11/26 04:05:29;;;;;;;1990.03;289.00;;;3.90;99.90;;;;;;6251167;22;20433;-68
2021/11/26 04:07:59;;;;;;;1975.67;347.20;;;3.90;99.90;;;;;;6288658;22;20393;-68
2021/11/26 04:10:29;;;;;;;1999.90;333.70;;;3.90;99.90;;;;;;6251133;22;20401;-68
2021/11/26 04:12:57;;;;;;;1999.90;524.97;;;3.90;99.90;;;;;;6288425;22;20400;-68
2021/11/26 04:15:25;;;;;;;1999.90;334.53;;;3.90;99.90;;;;;;6288524;22;20427;-68
2021/11/26 04:18:00;;;;;;;1673.10;267.67;;;3.90;99.90;;;;;;6288489;22;20437;-69
2021/11/26 04:20:30;;;;;;;1999.90;415.47;;;3.90;99.90;;;;;;6288786;22;20460;-68
2021/11/26 04:22:59;;;;;;;1767.10;274.83;;;3.90;99.90;;;;;;6288707;22;20398;-69
2021/11/26 04:25:27;;;;;;;1999.90;481.80;;;3.90;99.90;;;;;;6288368;22;20891;-69
2021/11/26 04:27:56;;;;;;;1999.90;374.43;;;3.90;99.90;;;;;;6288226;22;20483;-68
2021/11/26 04:30:25;;;;;;;1999.90;324.17;;;4.00;99.90;;;;;;6288303;22;20407;-68
2021/11/26 04:32:53;;;;;;;1999.90;999.90;;;4.00;99.90;;;;;;6250880;22;20906;-68
2021/11/26 04:35:22;;;;;;;1999.90;999.90;;;4.00;99.90;;;;;;6288249;22;20399;-68
2021/11/26 04:37:51;;;;;;;1804.03;264.60;;;4.00;99.90;;;;;;6288544;22;20482;-68
2021/11/26 04:40:20;;;;;;;1999.90;360.10;;;4.00;99.90;;;;;;6288094;22;20424;-68
2021/11/26 04:42:48;;;;;;;1999.90;736.17;;;4.00;99.90;;;;;;6288174;22;20396;-68
2021/11/26 04:45:17;;;;;;;1999.90;503.40;;;4.00;99.90;;;;;;6250822;22;20407;-68
2021/11/26 04:47:46;;;;;;;1999.90;312.43;;;4.00;99.90;;;;;;6287862;22;20997;-68
2021/11/26 04:50:15;;;;;;;1766.90;331.57;;;4.00;99.90;;;;;;6288184;22;20439;-68
2021/11/26 04:52:44;;;;;;;1999.90;502.50;;;4.10;99.90;;;;;;6278233;22;20438;-68
2021/11/26 04:55:14;;;;;;;1999.90;282.90;;;4.10;99.90;;;;;;6288524;22;20912;-69
2021/11/26 04:57:44;;;;;;;1999.90;223.97;;;4.10;99.90;;;;;;6251543;22;20397;-68
2021/11/26 05:00:15;;;;;;;1999.90;723.80;;;4.10;99.90;;;;;;6288823;22;20451;-69
2021/11/26 05:02:43;;;;;;;1986.47;205.43;;;4.10;99.90;;;;;;6288531;22;20423;-68
2021/11/26 05:05:12;;;;;;;1999.90;475.77;;;4.10;99.90;;;;;;6288629;22;20400;-69
2021/11/26 05:07:42;;;;;;;1999.90;709.07;;;4.10;99.90;;;;;;6287952;22;20476;-69
2021/11/26 05:10:11;;;;;;;1999.90;559.53;;;4.10;99.90;;;;;;6277820;22;20433;-69
2021/11/26 05:12:44;;;;;;;1999.90;729.63;;;4.10;99.90;;;;;;6250582;22;20416;-69
2021/11/26 05:15:13;;;;;;;1662.30;289.47;;;4.10;99.90;;;;;;6288202;22;20413;-69
2021/11/26 05:17:41;;;;;;;1999.90;654.27;;;4.20;99.90;;;;;;6287745;22;20405;-69
2021/11/26 05:20:11;;;;;;;1885.33;695.33;;;4.20;99.90;;;;;;6287896;22;20460;-69
2021/11/26 05:22:40;;;;;;;1999.90;738.53;;;4.20;99.90;;;;;;6250453;22;20409;-69
2021/11/26 05:25:09;;;;;;;1999.90;749.33;;;4.20;99.90;;;;;;6287889;22;20449;-69
2021/11/26 05:27:37;;;;;;;1999.90;999.90;;;4.20;99.90;;;;;;6287847;22;20863;-69
2021/11/26 05:30:09;;;;;;;1999.90;999.90;;;4.20;99.90;;;;;;6287539;22;20443;-69
2021/11/26 05:32:38;;;;;;;1999.90;999.90;;;4.20;99.90;;;;;;6250478;22;20942;-68
2021/11/26 05:35:07;;;;;;;1999.90;692.00;;;4.20;99.90;;;;;;6287765;22;20719;-68
2021/11/26 05:37:35;;;;;;;1999.90;617.37;;;4.20;99.90;;;;;;6287617;22;20471;-68
2021/11/26 05:40:05;;;;;;;1999.90;723.27;;;4.30;99.90;;;;;;6287551;22;20744;-68
2021/11/26 05:42:34;;;;;;;1999.90;586.20;;;4.30;99.90;;;;;;6250271;22;20413;-69
2021/11/26 05:45:02;;;;;;;1999.90;739.67;;;4.30;99.90;;;;;;6287510;22;20729;-68
2021/11/26 05:47:32;;;;;;;1999.20;496.17;;;4.30;99.90;;;;;;6287549;22;20500;-69
2021/11/26 05:50:00;;;;;;;1959.30;510.50;;;4.30;99.90;;;;;;6287460;22;20459;-69
2021/11/26 05:52:28;;;;;;;1999.90;531.87;;;4.30;99.90;;;;;;6288219;22;20448;-69
2021/11/26 05:54:56;;;;;;;1999.90;999.90;;;4.30;99.90;;;;;;6287697;22;20411;-68
2021/11/26 05:57:24;;;;;;;1999.90;999.90;;;4.40;99.90;;;;;;6249944;22;20405;-69
2021/11/26 05:59:52;;;;;;;1999.90;999.90;;;4.40;99.90;;;;;;6287790;22;20411;-68
2021/11/26 06:02:20;;;;;;;1999.90;999.90;;;4.30;99.90;;;;;;6287727;22;20389;-69
2021/11/26 06:04:50;;;;;;;1569.00;430.63;;;4.30;99.90;;;;;;6287761;22;20484;-68
2021/11/26 06:07:18;;;;;;;1605.97;454.97;;;4.30;99.90;;;;;;6250078;22;20471;-69
2021/11/26 06:09:46;;;;;;;1999.90;999.90;;;4.40;99.90;;;;;;6287106;22;20439;-68
2021/11/26 06:12:14;;;;;;;1999.90;999.90;;;4.40;99.90;;;;;;6287975;22;20722;-68
2021/11/26 06:14:42;;;;;;;1999.90;999.90;;;4.40;99.90;;;;;;6288038;22;20401;-68
2021/11/26 06:17:10;;;;;;;1999.90;627.13;;;4.40;99.90;;;;;;6249773;22;20519;-69
2021/11/26 06:19:39;;;;;;;1999.90;999.90;;;4.40;99.90;;;;;;6288335;22;20416;-68
2021/11/26 06:22:09;;;;;;;1999.90;999.90;;;4.40;99.90;;;;;;6287272;22;20880;-68
2021/11/26 06:24:37;;;;;;;1999.90;999.90;;;4.40;99.90;;;;;;6287163;22;20732;-69
2021/11/26 06:27:05;;;;;;;1999.90;999.90;;;4.40;99.90;;;;;;6287172;22;20396;-69
2021/11/26 06:29:34;;;;;;;1999.90;591.17;;;4.40;99.90;;;;;;6249612;22;20450;-68
2021/11/26 06:32:02;;;;;;;1999.90;673.50;;;4.40;99.90;;;;;;6287154;22;20899;-69
2021/11/26 06:34:30;;;;;;;1999.90;622.33;;;4.40;99.90;;;;;;6287380;22;20445;-69
2021/11/26 06:36:58;;;;;;;1999.90;999.90;;;4.40;99.90;;;;;;6287457;22;20397;-69
2021/11/26 06:39:28;;;;;;;1999.90;999.90;;;4.50;99.90;;;;;;6287343;22;20923;-68
2021/11/26 06:41:57;;;;;;;1969.10;513.03;;;4.40;99.90;;;;;;6287535;22;20366;-68
2021/11/26 06:44:25;;;;;;;1999.90;999.90;;;4.50;99.90;;;;;;6276616;22;20495;-68
2021/11/26 06:46:53;;;;;;;1999.90;999.90;;;4.50;99.90;;;;;;6277092;22;20490;-68
2021/11/26 06:49:21;;;;;;;1999.90;724.40;;;4.50;99.90;;;;;;6286765;22;20507;-68
2021/11/26 06:51:49;;;;;;;1999.90;700.23;;;4.50;99.90;;;;;;6287160;22;20773;-68
2021/11/26 06:54:17;;;;;;;1999.90;999.90;;;4.50;99.90;;;;;;6286957;22;20739;-68
2021/11/26 06:56:47;;;;;;;1974.43;551.87;;;4.50;99.90;;;;;;6287303;22;20406;-68
2021/11/26 06:59:15;;;;;;;1999.90;530.20;;;4.50;99.90;;;;;;6249466;22;20771;-68
2021/11/26 07:01:43;;;;;;;1999.90;999.90;;;4.50;99.90;;;;;;6287300;22;20399;-68
2021/11/26 07:04:12;;;;;;;1999.90;546.73;;;4.50;99.90;;;;;;6249563;22;20796;-68
2021/11/26 07:06:41;;;;;;;1999.90;999.90;;;4.50;99.90;;;;;;6249571;22;20447;-68
2021/11/26 07:09:09;;;;;;;1631.73;518.97;;;4.50;99.90;;;;;;6286504;22;20440;-68
2021/11/26 07:11:37;;;;;;;1770.73;478.67;;;4.60;99.90;;;;;;6287154;22;20512;-68
2021/11/26 07:14:06;;;;;;;1653.47;447.80;;;4.60;99.90;;;;;;6286824;22;20403;-68
2021/11/26 07:16:35;;;;;;;1999.90;592.47;;;4.60;99.90;;;;;;6286898;22;20515;-68
2021/11/26 07:19:03;;;;;;;1999.90;538.43;;;4.60;99.90;;;;;;6286604;22;20427;-68
2021/11/26 07:21:31;;;;;;;861.90;272.07;;;4.60;99.90;;;;;;6249380;22;20914;-68
2021/11/26 07:24:01;;;;;;;1246.50;403.70;;;4.60;99.90;;;;;;6286795;22;20447;-68
2021/11/26 07:26:29;;;;;;;1999.90;999.90;;;4.60;99.90;;;;;;6249400;22;20474;-68
2021/11/26 07:28:58;;;;;;;1999.90;999.90;;;4.60;99.90;;;;;;6286833;22;20413;-68
2021/11/26 07:31:27;;;;;;;1866.97;531.80;;;4.60;99.90;;;;;;6249203;22;20527;-68
2021/11/26 07:33:56;;;;;;;1999.90;640.37;;;4.60;99.90;;;;;;6287085;22;20513;-68
2021/11/26 07:36:24;;;;;;;1999.90;999.90;;;4.60;99.90;;;;;;6286718;22;20493;-68
2021/11/26 07:38:52;;;;;;;1852.87;444.90;;;4.60;99.90;;;;;;6249228;22;20763;-68
2021/11/26 07:41:20;;;;;;;1981.50;516.00;;;4.60;99.90;;;;;;6287096;22;20497;-68
2021/11/26 07:43:48;;;;;;;1999.90;578.93;;;4.60;99.90;;;;;;6287094;22;20393;-68
2021/11/26 07:46:16;;;;;;;1999.90;999.90;;;4.60;99.90;;;;;;6287213;22;20483;-68
2021/11/26 07:48:46;;;;;;;1410.27;427.07;;;4.60;99.90;;;;;;6287065;22;20409;-68
2021/11/26 07:51:14;;;;;;;1999.90;999.90;;;4.60;99.90;;;;;;6286549;22;20424;-68
2021/11/26 07:53:43;;;;;;;1419.17;431.23;;;4.60;99.90;;;;;;6286647;22;20754;-68
2021/11/26 07:56:11;;;;;;;1999.90;999.90;;;4.60;99.90;;;;;;6286766;22;20397;-68
2021/11/26 07:58:39;;;;;;;1113.63;355.57;;;4.60;99.90;;;;;;6287058;22;20899;-68
2021/11/26 08:01:07;;;;;;;1446.37;420.83;;;4.70;99.90;;;;;;6249340;22;20771;-68
2021/11/26 08:03:35;;;;;;;1170.97;343.73;;;4.70;99.90;;;;;;6286949;22;20428;-68
2021/11/26 08:06:06;;;;;;;1055.30;348.27;;;4.70;99.90;;;;;;6276570;22;20716;-68
2021/11/26 08:08:34;;;;;;;1999.90;999.90;;;4.70;99.90;;;;;;6287321;22;20960;-69
2021/11/26 08:11:03;;;;;;;1749.60;459.57;;;4.70;99.90;;;;;;6287252;22;20424;-68
2021/11/26 08:13:31;;;;;;;1999.90;999.90;;;4.70;99.90;;;;;;6276615;22;20396;-69
2021/11/26 08:15:59;;;;;;;1999.90;999.90;;;4.70;99.90;;;;;;6249193;22;20413;-68
2021/11/26 08:18:27;;;;;;;804.50;275.37;;;4.70;99.90;;;;;;6286475;22;20445;-68
2021/11/26 08:20:56;;;;;;;1152.23;350.87;;;4.80;99.90;;;;;;6286621;22;20392;-68
2021/11/26 08:23:27;;;;;;;1999.90;999.90;;;4.70;99.90;;;;;;6278358;22;20459;-69
2021/11/26 08:25:57;;;;;;;1515.73;436.97;;;4.80;99.90;;;;;;6289213;22;20413;-69
2021/11/26 08:28:25;;;;;;;1999.90;999.90;;;4.80;99.90;;;;;;6288234;22;20419;-68
2021/11/26 08:30:55;;;;;;;1999.90;999.90;;;4.80;99.90;;;;;;6288265;22;20424;-69
2021/11/26 08:33:24;;;;;;;1999.90;999.90;;;4.80;99.90;;;;;;6250957;22;20427;-69
2021/11/26 08:35:52;;;;;;;863.13;283.20;;;4.90;99.90;;;;;;6288894;22;20420;-69
2021/11/26 08:38:21;;;;;;;1999.90;999.90;;;4.80;99.90;;;;;;6251012;22;20431;-68
2021/11/26 08:40:51;;;;;;;1999.90;999.90;;;4.90;99.90;;;;;;6288265;22;20472;-68
2021/11/26 08:43:19;;;;;;;1383.70;359.43;;;4.90;99.90;;;;;;6288194;22;20393;-68
2021/11/26 08:45:48;;;;;;;651.30;254.00;;;4.90;99.90;;;;;;6278236;22;20405;-68
2021/11/26 08:48:17;;;;;;;927.27;298.40;;;4.90;99.90;;;;;;6250656;22;20911;-68
2021/11/26 08:50:45;;;;;;;1999.90;554.67;;;4.90;99.90;;;;;;6288731;22;20425;-68
2021/11/26 08:53:14;;;;;;;1879.33;482.80;;;5.00;99.90;;;;;;6277675;22;20484;-68
2021/11/26 08:55:47;;;;;;;1879.30;413.43;;;5.00;99.90;;;;;;6288118;22;20397;-68
2021/11/26 08:58:16;;;;;;;1566.07;387.33;;;5.00;99.90;;;;;;6288339;22;20419;-68
2021/11/26 09:00:44;;;;;;;1844.20;416.17;;;5.00;99.90;;;;;;6288328;22;20715;-69
2021/11/26 09:03:14;;;;;;;975.30;256.60;;;5.00;99.90;;;;;;6250512;22;20816;-68
2021/11/26 09:05:43;;;;;;;1793.57;416.00;;;5.00;99.90;;;;;;6250437;22;20417;-69
2021/11/26 09:08:15;;;;;;;1999.90;551.93;;;5.10;99.90;;;;;;6287852;22;20397;-69
2021/11/26 09:10:44;;;;;;;1999.90;446.73;;;5.10;99.90;;;;;;6288186;22;20413;-68
2021/11/26 09:13:15;;;;;;;1493.60;404.93;;;5.10;99.90;;;;;;6250479;22;20416;-68
2021/11/26 09:15:45;;;;;;;1964.93;496.30;;;5.10;99.90;;;;;;6250471;22;20471;-68
2021/11/26 09:18:15;;;;;;;1616.17;381.60;;;5.10;99.90;;;;;;6278434;22;20416;-68
2021/11/26 09:20:49;;;;;;;1444.37;383.43;;;5.20;99.90;;;;;;6251755;22;20491;-68
2021/11/26 09:23:18;;;;;;;1999.90;516.60;;;5.20;99.90;;;;;;6287847;22;20408;-68
2021/11/26 09:25:46;;;;;;;1633.30;412.67;;;5.20;99.90;;;;;;6288536;22;20435;-69
2021/11/26 09:28:15;;;;;;;1999.90;592.00;;;5.20;99.90;;;;;;6287745;22;20483;-68
2021/11/26 09:30:47;;;;;;;1777.07;394.30;;;5.20;99.90;;;;;;6287501;22;20483;-69
2021/11/26 09:33:16;;;;;;;1646.83;384.67;;;5.20;99.90;;;;;;6277765;22;20404;-69
2021/11/26 09:35:44;;;;;;;1973.83;540.70;;;5.30;99.90;;;;;;6286225;22;20397;-68
2021/11/26 09:38:13;;;;;;;1578.30;391.00;;;5.30;99.90;;;;;;6287775;22;20398;-69
2021/11/26 09:40:42;;;;;;;1644.00;355.73;;;5.30;99.90;;;;;;6287573;22;20404;-68
2021/11/26 09:43:10;;;;;;;1483.50;323.63;;;5.30;99.90;;;;;;6287551;22;20389;-69
2021/11/26 09:45:39;;;;;;;1999.90;618.07;;;5.30;99.90;;;;;;6277624;22;20403;-69
2021/11/26 09:48:09;;;;;;;1671.13;403.00;;;5.30;99.90;;;;;;6277546;22;20411;-68
2021/11/26 09:50:38;;;;;;;1429.33;322.47;;;5.30;99.90;;;;;;6287503;22;20483;-69
2021/11/26 09:53:11;;;;;;;1686.83;400.23;;;5.30;99.90;;;;;;6277553;22;20487;-68
2021/11/26 09:55:43;;;;;;;1813.53;446.73;;;5.40;99.90;;;;;;6287830;22;20404;-68
2021/11/26 09:58:12;;;;;;;1932.90;522.23;;;5.40;99.90;;;;;;6277455;22;20424;-69
2021/11/26 10:00:40;;;;;;;1999.90;584.97;;;5.40;99.90;;;;;;6287410;22;20421;-68
2021/11/26 10:03:10;;;;;;;1549.03;347.73;;;5.40;99.90;;;;;;6287349;22;20394;-69
2021/11/26 10:05:39;;;;;;;1648.63;367.30;;;5.50;99.90;;;;;;6250341;22;20416;-69
2021/11/26 10:08:08;;;;;;;1999.90;648.80;;;5.50;99.90;;;;;;6287464;22;20425;-69
2021/11/26 10:10:39;;;;;;;1639.77;377.83;;;5.50;99.90;;;;;;6287601;22;20393;-69
2021/11/26 10:13:11;;;;;;;1859.27;475.30;;;5.50;99.90;;;;;;6287492;22;20419;-69
2021/11/26 10:15:42;;;;;;;1955.47;484.27;;;5.50;99.90;;;;;;6288104;22;20377;-69
2021/11/26 10:18:15;;;;;;;1999.90;534.60;;;5.50;99.90;;;;;;6287242;22;20482;-69
2021/11/26 10:20:59;;;;;;;1908.87;462.60;;;5.60;99.90;;;;;;6249884;22;20416;-69
2021/11/26 10:23:29;;;;;;;1999.90;691.53;;;5.60;99.90;;;;;;6288009;22;20464;-69
2021/11/26 10:26:01;;;;;;;1642.43;400.53;;;5.60;99.90;;;;;;6287990;22;20479;-69
2021/11/26 10:28:40;;;;;;;1951.37;471.33;;;5.60;99.90;;;;;;6287561;22;20507;-68
2021/11/26 10:31:17;;;;;;;1999.90;600.93;;;5.70;99.90;;;;;;6249824;22;20425;-69
2021/11/26 10:34:00;;;;;;;1999.90;589.67;;;5.70;99.90;;;;;;6287939;22;20404;-69
2021/11/26 10:36:29;;;;;;;1949.73;506.37;;;5.70;99.90;;;;;;6277200;22;20519;-69
2021/11/26 10:38:57;;;;;;;1874.37;432.50;;;5.70;99.90;;;;;;6287000;22;20751;-69
2021/11/26 10:41:29;;;;;;;1238.27;323.80;;;5.80;99.90;;;;;;6287134;22;20408;-69
2021/11/26 10:44:05;;;;;;;1601.37;371.97;;;5.80;99.90;;;;;;6249481;22;20401;-69
2021/11/26 10:46:48;;;;;;;1312.20;313.13;;;5.80;99.90;;;;;;6287646;22;20373;-69
2021/11/26 10:58:34;;;;;;;1999.90;826.67;;;5.90;99.90;;;;;;6249454;22;20416;-69
2021/11/26 11:01:05;;;;;;;1999.90;385.83;;;5.90;99.90;;;;;;6287320;22;20421;-69
2021/11/26 11:03:34;;;;;;;1686.77;302.07;;;5.90;99.90;;;;;;6287140;22;20381;-69
2021/11/26 11:06:04;;;;;;;818.97;207.97;;;5.90;99.90;;;;;;6287186;22;20401;-69
2021/11/26 11:08:32;;;;;;;1336.90;322.93;;;6.00;99.90;;;;;;6276920;22;20496;-69
2021/11/26 11:11:05;;;;;;;386.17;112.97;;;6.00;99.90;;;;;;6276989;22;20445;-69
2021/11/26 11:13:33;;;;;;;1863.57;384.27;;;6.00;99.90;;;;;;6287251;22;20409;-69
2021/11/26 11:16:07;;;;;;;1676.97;363.67;;;6.00;99.90;;;;;;6286892;22;20389;-69
2021/11/26 11:18:37;;;;;;;1357.67;271.90;;;6.00;99.90;;;;;;6286665;22;20439;-69
2021/11/26 11:21:08;;;;;;;1444.63;263.80;;;6.10;99.90;;;;;;6249458;22;20440;-69
2021/11/26 11:23:37;;;;;;;1999.90;549.90;;;6.10;99.90;;;;;;6286834;22;20378;-69
2021/11/26 11:26:06;;;;;;;1194.50;260.53;;;6.10;99.90;;;;;;6249447;22;20414;-68
2021/11/26 11:28:34;;;;;;;432.63;113.37;;;6.10;99.90;;;;;;6287020;22;20423;-69
2021/11/26 11:31:03;;;;;;;234.37;41.93;;;6.10;99.90;;;;;;6286861;22;20905;-69
2021/11/26 11:33:32;;;;;;;348.57;70.10;;;6.10;99.90;;;;;;6286720;22;20427;-69
2021/11/26 11:36:02;;;;;;;934.43;234.67;;;6.10;99.90;;;;;;6276401;22;20876;-69
2021/11/26 11:38:31;;;;;;;1401.17;328.73;;;6.20;99.90;;;;;;6286657;22;20954;-69
2021/11/26 11:41:02;;;;;;;990.20;239.13;;;6.20;99.90;;;;;;6276749;22;20405;-69
2021/11/26 11:43:39;;;;;;;1210.30;238.70;;;6.20;99.90;;;;;;6286767;22;20377;-69
2021/11/26 11:46:11;;;;;;;872.00;201.03;;;6.20;99.90;;;;;;6287139;22;20447;-68
2021/11/26 11:48:44;;;;;;;298.03;45.83;;;6.20;99.90;;;;;;6287037;22;20452;-69
2021/11/26 11:51:22;;;;;;;1879.33;412.37;;;6.20;99.90;;;;;;6287150;22;20836;-69
2021/11/26 11:54:02;;;;;;;986.87;219.50;;;6.30;99.90;;;;;;6276400;22;20453;-69
2021/11/26 11:56:39;;;;;;;1827.47;539.53;;;6.30;99.90;;;;;;6288298;22;20449;-69
2021/11/26 11:59:07;;;;;;;413.97;54.37;;;6.30;99.90;;;;;;6251216;22;20468;-69
2021/11/26 12:01:45;;;;;;;1479.07;367.07;;;6.30;99.90;;;;;;6288638;22;20388;-69
2021/11/26 12:04:17;;;;;;;1258.63;283.63;;;6.30;99.90;;;;;;6251258;22;20415;-69
2021/11/26 12:06:47;;;;;;;370.20;60.80;;;6.30;99.90;;;;;;6289352;22;20426;-69
2021/11/26 12:09:26;;;;;;;329.13;40.83;;;6.30;99.90;;;;;;6278901;22;20429;-69
2021/11/26 12:12:06;;;;;;;386.37;65.27;;;6.30;99.90;;;;;;6278546;22;20413;-69
2021/11/26 12:14:48;;;;;;;1735.53;505.43;;;6.30;99.90;;;;;;6251086;22;20433;-69
2021/11/26 12:17:32;;;;;;;1999.90;999.90;;;6.30;99.90;;;;;;6278393;22;20505;-69
2021/11/26 12:20:08;;;;;;;1146.47;157.17;;;6.30;99.90;;;;;;6288487;22;20439;-69
2021/11/26 12:22:40;;;;;;;1757.43;473.97;;;6.30;99.90;;;;;;6288769;22;20373;-69
2021/11/26 12:25:27;;;;;;;1947.00;552.43;;;6.30;99.90;;;;;;6288491;22;20373;-69
2021/11/26 12:27:57;;;;;;;162.97;35.67;;;6.30;99.90;;;;;;6278119;22;20393;-68
2021/11/26 12:30:26;;;;;;;1779.53;504.47;;;6.30;99.90;;;;;;6278328;22;20734;-69